To NAV CANADA Home Page Login to a new session Search on AWWS site Feedback and Comments Disclaimer Vers la page française équivalente Tips FAQ What's new on the site To the Forecasts and Observations / NOTAM section To "File a Flight Plan" website Publications and other links Update of the User's profile FIC Telephone Numbers My Weather Data Folder Route Weather Data Regional Weather Data Local Weather Data To the Forecasts and Observations / NOTAM section
Request Generated 01/17/2017 at 04:51:28 UTC . Weather information available at that time is displayed.

METAR/TAF

BAKER LAKE/NU    

SPECI CYBK 170440Z 16007KT 15SM -SN OVC011 M18/M21 A2917 RMK SC8
SLP883=
METAR CYBK 170400Z 15008KT 15SM IC BKN012 OVC025 M19/M22 A2920 RMK
SC6SC2 SLP894=
METAR CYBK 170300Z 16010KT 15SM IC BKN013 OVC025 M19/M22 A2925 RMK
SC5SC3 SLP908=
METAR CYBK 170200Z 15007KT 10SM -SN SCT013 OVC025 M20/M23 A2929 RMK
SC4SC4 PRESFR SLP924=

TAF AMD CYBK 170218Z 1702/1712 16010KT 6SM -SN SCT015 BKN025 TEMPO
1702/1706 2SM -SN OVC009
FM170600 14010KT P6SM BKN008 TEMPO 1706/1712 3SM BR OVC005
BECMG 1709/1711 30010KT
RMK NXT FCST BY 170600Z=
Your time UTC time
Weather data provided by Environment Canada and NAV CANADA